createdAt,value
2022-09-28T00:04:20.494Z,3.70
2022-09-28T00:08:29.062Z,6.00
2022-09-28T00:12:37.629Z,4.83
2022-09-28T00:16:47.035Z,4.10
2022-09-28T00:21:08.045Z,3.60
2022-09-28T00:25:16.933Z,4.67
2022-09-28T00:29:34.358Z,4.37
2022-09-28T00:33:43.013Z,3.90
2022-09-28T00:37:52.251Z,3.57
2022-09-28T00:42:00.873Z,4.73
2022-09-28T00:46:33.126Z,3.93
2022-09-28T00:50:41.737Z,4.47
2022-09-28T00:54:51.622Z,4.30
2022-09-28T00:59:02.237Z,4.70
2022-09-28T01:03:14.276Z,4.07
2022-09-28T01:07:23.721Z,5.20
2022-09-28T01:11:34.312Z,5.50
2022-09-28T01:15:51.928Z,4.27
2022-09-28T01:20:06.255Z,3.87
2022-09-28T01:24:35.008Z,5.23
2022-09-28T01:28:46.804Z,5.97
2022-09-28T01:32:59.568Z,5.50
2022-09-28T01:37:11.233Z,5.40
2022-09-28T01:41:21.544Z,5.27
2022-09-28T01:45:36.067Z,5.40
2022-09-28T01:49:47.674Z,5.37
2022-09-28T01:53:59.307Z,7.03
2022-09-28T01:58:13.611Z,6.33
2022-09-28T02:02:25.324Z,6.50
2022-09-28T02:06:38.778Z,5.13
2022-09-28T02:10:52.918Z,5.37
2022-09-28T02:15:04.545Z,5.03
2022-09-28T02:19:17.480Z,5.67
2022-09-28T02:23:29.432Z,7.77
2022-09-28T02:28:07.721Z,10.13
2022-09-28T02:32:17.858Z,5.93
2022-09-28T02:36:28.140Z,10.17
2022-09-28T02:40:38.106Z,7.00
2022-09-28T02:44:58.765Z,6.23
2022-09-28T02:49:21.500Z,5.47
2022-09-28T02:53:32.717Z,6.70
2022-09-28T02:57:59.216Z,5.33
2022-09-28T03:02:29.209Z,6.23
2022-09-28T03:06:40.938Z,6.00
2022-09-28T03:10:52.577Z,7.53
2022-09-28T03:15:09.363Z,5.93
2022-09-28T03:19:20.317Z,5.07
2022-09-28T03:23:28.895Z,6.10
2022-09-28T03:27:37.871Z,7.07
2022-09-28T03:31:47.269Z,7.37
2022-09-28T03:35:55.755Z,6.73
2022-09-28T03:40:05.347Z,5.80
2022-09-28T03:44:14.074Z,7.43
2022-09-28T03:48:26.761Z,9.43
2022-09-28T03:52:34.387Z,8.13
2022-09-28T03:56:42.970Z,9.43
2022-09-28T04:00:52.502Z,6.10
2022-09-28T04:05:01.062Z,6.57
2022-09-28T04:09:09.779Z,9.30
2022-09-28T04:13:18.531Z,9.30
2022-09-28T04:17:27.138Z,11.33
2022-09-28T04:21:35.740Z,8.00
2022-09-28T04:25:46.259Z,11.97
2022-09-28T04:29:54.809Z,12.70
2022-09-28T04:34:03.388Z,11.43
2022-09-28T04:38:12.071Z,12.83
2022-09-28T04:42:20.613Z,11.30
2022-09-28T04:46:29.196Z,10.53
2022-09-28T04:50:38.054Z,11.07
2022-09-28T04:54:46.642Z,9.40
2022-09-28T04:58:55.196Z,9.60
2022-09-28T05:03:03.776Z,12.13
2022-09-28T05:07:12.865Z,22.43
2022-09-28T05:11:21.710Z,11.80
2022-09-28T05:15:30.955Z,14.53
2022-09-28T05:20:00.635Z,12.20
2022-09-28T05:24:09.203Z,12.50
2022-09-28T05:28:26.811Z,10.43
2022-09-28T05:32:35.371Z,12.97
2022-09-28T05:36:45.733Z,9.37
2022-09-28T05:40:55.848Z,14.97
2022-09-28T05:45:05.454Z,14.07
2022-09-28T05:49:14.080Z,12.07
2022-09-28T05:53:23.399Z,13.07
2022-09-28T05:57:33.085Z,10.23
2022-09-28T06:01:41.693Z,10.90
2022-09-28T06:05:50.635Z,12.00
2022-09-28T06:09:59.670Z,11.47
2022-09-28T06:14:08.788Z,12.20
2022-09-28T06:18:17.387Z,12.03
2022-09-28T06:22:27.178Z,12.10
2022-09-28T06:26:35.733Z,13.60
2022-09-28T06:30:45.102Z,11.50
2022-09-28T06:34:56.291Z,11.37
2022-09-28T06:39:05.760Z,10.33
2022-09-28T06:43:16.047Z,14.00
2022-09-28T06:47:25.566Z,11.80
2022-09-28T06:51:34.127Z,7.90
2022-09-28T06:55:49.076Z,7.00
2022-09-28T06:59:57.632Z,8.70
2022-09-28T07:04:06.266Z,10.47
2022-09-28T07:08:15.901Z,13.60
2022-09-28T07:12:26.155Z,8.83
2022-09-28T07:17:06.743Z,7.90
2022-09-28T07:20:54.234Z,9.80
2022-09-28T07:24:57.933Z,9.23
2022-09-28T07:29:06.724Z,11.50
2022-09-28T07:33:18.096Z,8.27
2022-09-28T07:37:26.931Z,9.40
2022-09-28T07:41:36.150Z,7.93
2022-09-28T07:45:45.248Z,9.97
2022-09-28T07:49:56.944Z,6.23
2022-09-28T07:54:06.535Z,11.10
2022-09-28T07:58:15.132Z,15.63
2022-09-28T08:02:24.305Z,9.50
2022-09-28T08:06:32.837Z,12.93
2022-09-28T08:10:47.160Z,8.03
2022-09-28T08:14:55.942Z,7.60
2022-09-28T08:19:05.375Z,7.93
2022-09-28T08:23:15.013Z,12.20
2022-09-28T08:27:23.550Z,10.40
2022-09-28T08:31:32.234Z,7.43
2022-09-28T08:35:44.043Z,10.97
2022-09-28T08:39:52.615Z,6.70
2022-09-28T08:44:13.730Z,7.00
2022-09-28T08:49:13.011Z,8.37
2022-09-28T08:53:02.247Z,9.37
2022-09-28T08:57:18.076Z,7.97
2022-09-28T09:01:30.264Z,10.30
2022-09-28T09:05:53.482Z,9.70
2022-09-28T09:10:13.690Z,10.03
2022-09-28T09:14:40.160Z,10.87
2022-09-28T09:18:51.834Z,10.47
2022-09-28T09:23:03.023Z,17.87
2022-09-28T09:27:20.827Z,13.70
2022-09-28T09:31:38.547Z,9.10
2022-09-28T09:36:02.311Z,7.07
2022-09-28T09:40:32.517Z,7.30
2022-09-28T09:44:56.601Z,9.60
2022-09-28T09:49:23.321Z,8.70
2022-09-28T09:53:56.197Z,7.70
2022-09-28T09:58:10.963Z,6.90
2022-09-28T10:02:30.944Z,6.53
2022-09-28T10:06:42.030Z,7.40
2022-09-28T10:10:59.114Z,6.20
2022-09-28T10:15:08.941Z,7.23
2022-09-28T10:19:20.026Z,7.90
2022-09-28T10:23:31.698Z,11.37
2022-09-28T10:27:44.972Z,6.60
2022-09-28T10:31:56.559Z,5.27
2022-09-28T10:36:08.117Z,6.17
2022-09-28T10:40:41.409Z,6.30
2022-09-28T10:45:29.021Z,9.03
2022-09-28T10:49:46.960Z,6.30
2022-09-28T10:54:02.500Z,4.60
2022-09-28T10:58:29.115Z,4.63
2022-09-28T11:02:40.777Z,5.87
2022-09-28T11:06:50.238Z,7.00
2022-09-28T11:11:21.759Z,4.63
2022-09-28T11:15:33.767Z,5.00
2022-09-28T11:19:42.328Z,8.03
2022-09-28T11:24:09.070Z,5.10
2022-09-28T11:28:20.777Z,5.50
2022-09-28T11:32:35.448Z,18.23
2022-09-28T11:36:52.900Z,5.50
2022-09-28T11:41:16.625Z,4.80
2022-09-28T11:45:29.346Z,4.87
2022-09-28T11:49:53.992Z,5.70
2022-09-28T11:54:13.347Z,7.70
2022-09-28T12:03:15.696Z,4.90
2022-09-28T12:07:30.130Z,4.73
2022-09-28T12:11:43.488Z,4.00
2022-09-28T12:16:38.377Z,4.80
2022-09-28T12:20:49.710Z,4.40
2022-09-28T12:25:01.549Z,5.37
2022-09-28T12:29:17.864Z,4.93
2022-09-28T12:33:45.102Z,4.23
2022-09-28T12:38:16.511Z,4.47
2022-09-28T12:42:56.850Z,5.23
2022-09-28T12:47:23.767Z,4.17
2022-09-28T12:52:05.920Z,4.17
2022-09-28T12:56:23.397Z,4.83
2022-09-28T13:00:41.156Z,4.93
2022-09-28T13:04:58.543Z,6.00
2022-09-28T13:09:24.819Z,4.17
2022-09-28T13:13:54.567Z,3.90
2022-09-28T13:18:15.263Z,3.83
2022-09-28T13:22:50.004Z,4.07
2022-09-28T13:27:02.919Z,4.43
2022-09-28T13:31:13.330Z,3.67
2022-09-28T13:35:22.061Z,4.63
2022-09-28T13:39:51.558Z,3.90
2022-09-28T13:44:16.844Z,4.13
2022-09-28T13:48:47.984Z,4.73
2022-09-28T13:53:02.702Z,3.93
2022-09-28T13:57:32.685Z,4.63
2022-09-28T14:01:44.417Z,5.13
2022-09-28T14:06:01.918Z,3.60
2022-09-28T14:10:25.885Z,5.83
2022-09-28T14:14:49.834Z,3.00
2022-09-28T14:19:10.221Z,2.60
2022-09-28T14:23:30.828Z,2.40
2022-09-28T14:27:51.248Z,2.50
2022-09-28T14:32:10.974Z,2.30
2022-09-28T14:36:47.006Z,2.53
2022-09-28T14:41:10.169Z,2.00
2022-09-28T14:45:21.401Z,1.90
2022-09-28T14:49:39.523Z,1.90
2022-09-28T14:58:28.808Z,2.03
2022-09-28T15:02:38.769Z,2.00
2022-09-28T15:06:49.677Z,2.10
2022-09-28T15:11:01.435Z,2.03
2022-09-28T15:15:30.538Z,2.20
2022-09-28T15:19:51.058Z,2.57
2022-09-28T15:23:59.698Z,1.70
2022-09-28T15:28:25.359Z,4.73
2022-09-28T15:32:33.925Z,2.93
2022-09-28T15:36:46.987Z,3.15
2022-09-28T15:40:56.193Z,1.90
2022-09-28T15:45:27.186Z,2.20
2022-09-28T15:49:44.286Z,2.10
2022-09-28T15:54:04.892Z,1.83
2022-09-28T15:58:20.235Z,1.70
2022-09-28T16:02:30.146Z,2.57
2022-09-28T16:06:38.679Z,2.53
2022-09-28T16:11:14.098Z,2.30
2022-09-28T16:15:28.552Z,6.10
2022-09-28T16:19:39.693Z,2.60
2022-09-28T16:23:55.190Z,2.50
2022-09-28T16:28:04.596Z,2.60
2022-09-28T16:32:33.709Z,3.70
2022-09-28T16:36:45.421Z,2.83
2022-09-28T16:40:54.575Z,2.70
2022-09-28T16:45:05.396Z,2.77
2022-09-28T16:49:26.895Z,2.60
2022-09-28T16:53:54.758Z,4.00
2022-09-28T16:58:05.180Z,3.90
2022-09-28T17:02:42.056Z,3.20
2022-09-28T17:06:29.494Z,2.67
2022-09-28T17:11:09.894Z,4.10
2022-09-28T17:14:56.423Z,4.87
2022-09-28T17:19:06.514Z,5.90
2022-09-28T17:23:16.027Z,3.63
2022-09-28T17:27:24.961Z,3.97
2022-09-28T17:31:33.541Z,3.90
2022-09-28T17:35:43.669Z,5.00
2022-09-28T17:39:52.223Z,3.27
2022-09-28T17:44:02.489Z,2.93
2022-09-28T17:48:16.646Z,2.90
2022-09-28T17:52:25.386Z,3.67
2022-09-28T17:56:35.269Z,2.83
2022-09-28T18:00:45.094Z,5.20
2022-09-28T18:04:54.087Z,5.60
2022-09-28T18:09:03.219Z,4.80
2022-09-28T18:13:11.880Z,4.30
2022-09-28T18:17:20.470Z,4.43
2022-09-28T18:21:30.659Z,5.00
2022-09-28T18:25:43.628Z,3.50
2022-09-28T18:29:52.268Z,3.87
2022-09-28T18:34:01.363Z,3.80
2022-09-28T18:38:10.621Z,4.60
2022-09-28T18:42:20.711Z,5.37
2022-09-28T18:46:32.484Z,8.93
2022-09-28T18:50:43.333Z,4.60
2022-09-28T18:54:51.982Z,6.10
2022-09-28T18:59:01.682Z,7.13
2022-09-28T19:03:14.291Z,6.30
2022-09-28T19:07:24.194Z,8.67
2022-09-28T19:11:32.849Z,6.70
2022-09-28T19:15:41.445Z,7.13
2022-09-28T19:19:51.253Z,5.10
2022-09-28T19:24:03.998Z,5.87
2022-09-28T19:28:12.608Z,5.00
2022-09-28T19:32:21.174Z,6.13
2022-09-28T19:36:30.085Z,8.80
2022-09-28T19:40:38.725Z,6.70
2022-09-28T19:44:47.401Z,5.83
2022-09-28T19:48:56.540Z,7.33
2022-09-28T19:53:06.740Z,7.33
2022-09-28T19:57:15.833Z,7.33
2022-09-28T20:01:24.772Z,6.57
2022-09-28T20:05:34.107Z,7.85
2022-09-28T20:09:42.677Z,7.80
2022-09-28T20:13:53.252Z,6.40
2022-09-28T20:18:01.838Z,7.37
2022-09-28T20:22:12.081Z,6.63
2022-09-28T20:26:21.174Z,9.07
2022-09-28T20:30:30.286Z,6.97
2022-09-28T20:34:38.847Z,6.30
2022-09-28T20:38:53.151Z,7.27
2022-09-28T20:43:01.787Z,9.73
2022-09-28T20:47:10.337Z,7.30
2022-09-28T20:51:22.624Z,8.80
2022-09-28T20:55:31.198Z,7.83
2022-09-28T20:59:40.256Z,7.63
2022-09-28T21:03:57.395Z,6.80
2022-09-28T21:08:05.973Z,7.57
2022-09-28T21:12:15.417Z,6.70
2022-09-28T21:16:23.984Z,7.47
2022-09-28T21:20:32.571Z,8.40
2022-09-28T21:24:41.147Z,10.60
2022-09-28T21:28:51.748Z,7.37
2022-09-28T21:33:01.951Z,9.70
2022-09-28T21:37:10.504Z,7.63
2022-09-28T21:41:19.095Z,9.63
2022-09-28T21:45:27.721Z,8.90
2022-09-28T21:49:36.303Z,8.05
2022-09-28T21:53:45.013Z,9.50
2022-09-28T21:57:53.573Z,8.87
2022-09-28T22:02:22.573Z,10.53
2022-09-28T22:06:31.117Z,7.17
2022-09-28T22:10:39.661Z,7.97
2022-09-28T22:14:48.227Z,9.90
2022-09-28T22:18:57.127Z,7.33
2022-09-28T22:23:05.761Z,7.70
2022-09-28T22:27:15.478Z,7.07
2022-09-28T22:31:30.033Z,7.50
2022-09-28T22:35:38.693Z,7.37
2022-09-28T22:39:47.259Z,7.67
2022-09-28T22:43:57.501Z,10.73
2022-09-28T22:48:06.068Z,9.90
2022-09-28T22:52:14.609Z,7.60
2022-09-28T22:56:23.316Z,8.70
2022-09-28T23:00:31.939Z,7.97
2022-09-28T23:04:40.518Z,7.40
2022-09-28T23:08:50.417Z,8.83
2022-09-28T23:12:59.218Z,9.23
2022-09-28T23:17:07.794Z,9.60
2022-09-28T23:21:18.815Z,8.33
2022-09-28T23:25:46.693Z,8.07
2022-09-28T23:29:55.264Z,7.90
2022-09-28T23:34:07.001Z,6.50
2022-09-28T23:38:20.783Z,7.17
2022-09-28T23:42:29.766Z,7.27
2022-09-28T23:46:38.784Z,6.53
2022-09-28T23:50:47.372Z,7.40
2022-09-28T23:54:55.966Z,6.40
2022-09-28T23:59:04.880Z,6.47
